EDXW/GWT METAR and TAF weather

Enter ICAO airport designator
Station Type Date Time Source
EDXW METAR 2019/08/21 18:50 UTC NOAA

EDXW 211850Z 22005KT 9999 FEW025 15/12 Q1027


Station Type Date Time Source
EDXW Decoded METAR 2019/08/21 18:50 UTC NOAA

Station name not available
Aug 21, 2019 - 02:50 PM EDT / 2019.08.21 1850 UTC
Wind: from the SW (220 degrees) at 6 MPH (5 KT):0
Visibility: greater than 7 mile(s):0
Sky conditions: mostly clear
Temperature: 59 F (15 C)
Dew Point: 53 F (12 C)
Relative Humidity: 82%
Pressure (altimeter): 30.33 in. Hg (1027 hPa)
ob: EDXW 211850Z 22005KT 9999 FEW025 15/12 Q1027
cycle: 19

Station Type Date Time Source
EDXW TAF 2009/07/07 14:00 UTC NOAA

TAF EDXW 071400Z 0715/0719 22015G25KT 9999 SCT020

Example: see airport list